sensor_id;sensor_type;location;lat;lon;timestamp;P1;durP1;ratioP1;P2;durP2;ratioP2
64208;SDS011;50527;52.414;13.226;2022-12-07T00:02:04;5.15;;;1.48;;
64208;SDS011;50527;52.414;13.226;2022-12-07T00:04:29;3.65;;;1.40;;
64208;SDS011;50527;52.414;13.226;2022-12-07T00:06:55;5.32;;;1.73;;
64208;SDS011;50527;52.414;13.226;2022-12-07T00:09:20;3.88;;;1.75;;
64208;SDS011;50527;52.414;13.226;2022-12-07T00:11:47;5.72;;;1.67;;
64208;SDS011;50527;52.414;13.226;2022-12-07T00:14:15;4.45;;;1.50;;
64208;SDS011;50527;52.414;13.226;2022-12-07T00:16:41;3.58;;;1.30;;
64208;SDS011;50527;52.414;13.226;2022-12-07T00:19:07;4.03;;;1.73;;
64208;SDS011;50527;52.414;13.226;2022-12-07T00:21:35;3.15;;;1.30;;
64208;SDS011;50527;52.414;13.226;2022-12-07T00:24:01;2.70;;;1.00;;
64208;SDS011;50527;52.414;13.226;2022-12-07T00:26:29;3.05;;;1.58;;
64208;SDS011;50527;52.414;13.226;2022-12-07T00:28:57;3.05;;;1.20;;
64208;SDS011;50527;52.414;13.226;2022-12-07T00:31:26;3.53;;;1.20;;
64208;SDS011;50527;52.414;13.226;2022-12-07T00:33:53;3.25;;;1.27;;
64208;SDS011;50527;52.414;13.226;2022-12-07T00:36:19;2.70;;;1.08;;
64208;SDS011;50527;52.414;13.226;2022-12-07T00:38:46;5.28;;;1.55;;
64208;SDS011;50527;52.414;13.226;2022-12-07T00:41:14;3.20;;;1.55;;
64208;SDS011;50527;52.414;13.226;2022-12-07T00:43:42;3.55;;;1.10;;
64208;SDS011;50527;52.414;13.226;2022-12-07T00:46:09;2.40;;;1.13;;
64208;SDS011;50527;52.414;13.226;2022-12-07T00:48:35;3.38;;;1.15;;
64208;SDS011;50527;52.414;13.226;2022-12-07T00:51:01;2.40;;;1.10;;
64208;SDS011;50527;52.414;13.226;2022-12-07T00:53:27;2.60;;;0.90;;
64208;SDS011;50527;52.414;13.226;2022-12-07T00:55:53;2.25;;;1.15;;
64208;SDS011;50527;52.414;13.226;2022-12-07T00:58:20;2.85;;;1.13;;
64208;SDS011;50527;52.414;13.226;2022-12-07T01:00:45;2.85;;;1.20;;
64208;SDS011;50527;52.414;13.226;2022-12-07T01:03:12;3.65;;;1.20;;
64208;SDS011;50527;52.414;13.226;2022-12-07T01:05:38;3.80;;;1.00;;
64208;SDS011;50527;52.414;13.226;2022-12-07T01:08:04;2.47;;;0.75;;
64208;SDS011;50527;52.414;13.226;2022-12-07T01:10:31;1.45;;;0.80;;
64208;SDS011;50527;52.414;13.226;2022-12-07T01:12:56;1.58;;;0.90;;
64208;SDS011;50527;52.414;13.226;2022-12-07T01:15:22;1.75;;;0.80;;
64208;SDS011;50527;52.414;13.226;2022-12-07T01:17:47;1.05;;;0.57;;
64208;SDS011;50527;52.414;13.226;2022-12-07T01:20:13;1.90;;;0.70;;
64208;SDS011;50527;52.414;13.226;2022-12-07T01:22:40;3.53;;;0.90;;
64208;SDS011;50527;52.414;13.226;2022-12-07T01:25:07;2.00;;;0.80;;
64208;SDS011;50527;52.414;13.226;2022-12-07T01:27:34;1.95;;;0.75;;
64208;SDS011;50527;52.414;13.226;2022-12-07T01:30:00;1.67;;;1.00;;
64208;SDS011;50527;52.414;13.226;2022-12-07T01:32:26;2.13;;;0.88;;
64208;SDS011;50527;52.414;13.226;2022-12-07T01:34:51;1.65;;;0.68;;
64208;SDS011;50527;52.414;13.226;2022-12-07T01:37:17;2.55;;;1.10;;
64208;SDS011;50527;52.414;13.226;2022-12-07T01:39:43;3.17;;;1.10;;
64208;SDS011;50527;52.414;13.226;2022-12-07T01:42:11;4.22;;;1.13;;
64208;SDS011;50527;52.414;13.226;2022-12-07T01:47:41;1.90;;;0.95;;
64208;SDS011;50527;52.414;13.226;2022-12-07T01:50:08;2.00;;;0.77;;
64208;SDS011;50527;52.414;13.226;2022-12-07T01:52:34;2.45;;;1.10;;
64208;SDS011;50527;52.414;13.226;2022-12-07T01:55:03;4.78;;;1.33;;
64208;SDS011;50527;52.414;13.226;2022-12-07T01:57:32;6.72;;;1.30;;
64208;SDS011;50527;52.414;13.226;2022-12-07T02:00:02;3.65;;;1.08;;
64208;SDS011;50527;52.414;13.226;2022-12-07T02:02:36;2.50;;;0.63;;
64208;SDS011;50527;52.414;13.226;2022-12-07T02:05:06;5.60;;;1.40;;
64208;SDS011;50527;52.414;13.226;2022-12-07T02:07:32;1.65;;;0.75;;
64208;SDS011;50527;52.414;13.226;2022-12-07T02:10:17;2.00;;;1.10;;
64208;SDS011;50527;52.414;13.226;2022-12-07T02:12:56;2.40;;;1.10;;
64208;SDS011;50527;52.414;13.226;2022-12-07T02:18:28;1.75;;;0.90;;
64208;SDS011;50527;52.414;13.226;2022-12-07T02:21:16;2.15;;;0.82;;
64208;SDS011;50527;52.414;13.226;2022-12-07T02:23:53;1.67;;;0.90;;
64208;SDS011;50527;52.414;13.226;2022-12-07T02:26:43;2.35;;;0.98;;
64208;SDS011;50527;52.414;13.226;2022-12-07T02:34:39;2.38;;;0.73;;
64208;SDS011;50527;52.414;13.226;2022-12-07T02:37:09;1.35;;;0.70;;
64208;SDS011;50527;52.414;13.226;2022-12-07T02:39:57;2.13;;;0.75;;
64208;SDS011;50527;52.414;13.226;2022-12-07T02:42:30;2.22;;;0.95;;
64208;SDS011;50527;52.414;13.226;2022-12-07T02:45:00;2.13;;;0.80;;
64208;SDS011;50527;52.414;13.226;2022-12-07T02:47:26;3.45;;;1.00;;
64208;SDS011;50527;52.414;13.226;2022-12-07T02:49:54;1.67;;;0.80;;
64208;SDS011;50527;52.414;13.226;2022-12-07T02:52:20;2.35;;;0.95;;
64208;SDS011;50527;52.414;13.226;2022-12-07T02:54:46;3.17;;;1.02;;
64208;SDS011;50527;52.414;13.226;2022-12-07T03:00:09;2.15;;;0.77;;
64208;SDS011;50527;52.414;13.226;2022-12-07T03:08:12;2.50;;;0.80;;
64208;SDS011;50527;52.414;13.226;2022-12-07T03:10:56;2.38;;;1.02;;
64208;SDS011;50527;52.414;13.226;2022-12-07T03:16:14;1.92;;;0.85;;
64208;SDS011;50527;52.414;13.226;2022-12-07T03:18:47;2.70;;;1.27;;
64208;SDS011;50527;52.414;13.226;2022-12-07T03:21:42;2.35;;;1.00;;
64208;SDS011;50527;52.414;13.226;2022-12-07T03:24:31;3.08;;;1.13;;
64208;SDS011;50527;52.414;13.226;2022-12-07T03:27:08;3.47;;;1.10;;
64208;SDS011;50527;52.414;13.226;2022-12-07T03:29:42;1.58;;;0.80;;
64208;SDS011;50527;52.414;13.226;2022-12-07T03:32:13;4.20;;;1.38;;
64208;SDS011;50527;52.414;13.226;2022-12-07T03:34:56;3.08;;;0.90;;
64208;SDS011;50527;52.414;13.226;2022-12-07T03:37:37;2.83;;;1.10;;
64208;SDS011;50527;52.414;13.226;2022-12-07T03:40:34;2.40;;;1.00;;
64208;SDS011;50527;52.414;13.226;2022-12-07T03:43:04;6.68;;;1.25;;
64208;SDS011;50527;52.414;13.226;2022-12-07T03:45:40;1.95;;;1.00;;
64208;SDS011;50527;52.414;13.226;2022-12-07T03:48:18;2.95;;;1.38;;
64208;SDS011;50527;52.414;13.226;2022-12-07T03:51:20;3.25;;;1.27;;
64208;SDS011;50527;52.414;13.226;2022-12-07T03:53:53;3.08;;;1.40;;
64208;SDS011;50527;52.414;13.226;2022-12-07T03:56:23;3.08;;;1.40;;
64208;SDS011;50527;52.414;13.226;2022-12-07T03:58:50;4.38;;;1.45;;
64208;SDS011;50527;52.414;13.226;2022-12-07T04:01:18;3.78;;;1.23;;
64208;SDS011;50527;52.414;13.226;2022-12-07T04:03:43;3.88;;;1.50;;
64208;SDS011;50527;52.414;13.226;2022-12-07T04:06:09;3.92;;;1.52;;
64208;SDS011;50527;52.414;13.226;2022-12-07T04:08:34;4.10;;;1.70;;
64208;SDS011;50527;52.414;13.226;2022-12-07T04:11:00;3.33;;;1.10;;
64208;SDS011;50527;52.414;13.226;2022-12-07T04:13:26;4.35;;;1.80;;
64208;SDS011;50527;52.414;13.226;2022-12-07T04:15:51;5.10;;;1.85;;
64208;SDS011;50527;52.414;13.226;2022-12-07T04:18:17;6.78;;;1.90;;
64208;SDS011;50527;52.414;13.226;2022-12-07T04:20:42;5.68;;;1.80;;
64208;SDS011;50527;52.414;13.226;2022-12-07T04:23:08;7.57;;;1.73;;
64208;SDS011;50527;52.414;13.226;2022-12-07T04:25:33;4.97;;;1.88;;
64208;SDS011;50527;52.414;13.226;2022-12-07T04:27:58;5.50;;;2.10;;
64208;SDS011;50527;52.414;13.226;2022-12-07T04:30:24;4.00;;;1.80;;
64208;SDS011;50527;52.414;13.226;2022-12-07T04:32:49;5.07;;;1.80;;
64208;SDS011;50527;52.414;13.226;2022-12-07T04:35:15;4.53;;;2.10;;
64208;SDS011;50527;52.414;13.226;2022-12-07T04:37:40;7.47;;;2.28;;
64208;SDS011;50527;52.414;13.226;2022-12-07T04:40:07;6.63;;;2.42;;
64208;SDS011;50527;52.414;13.226;2022-12-07T04:42:35;5.32;;;1.95;;
64208;SDS011;50527;52.414;13.226;2022-12-07T04:45:01;7.65;;;2.33;;
64208;SDS011;50527;52.414;13.226;2022-12-07T04:47:27;5.60;;;2.25;;
64208;SDS011;50527;52.414;13.226;2022-12-07T04:49:52;7.82;;;2.83;;
64208;SDS011;50527;52.414;13.226;2022-12-07T04:52:18;10.98;;;2.60;;
64208;SDS011;50527;52.414;13.226;2022-12-07T04:54:43;8.10;;;2.90;;
64208;SDS011;50527;52.414;13.226;2022-12-07T04:57:09;7.30;;;2.35;;
64208;SDS011;50527;52.414;13.226;2022-12-07T04:59:34;7.32;;;2.20;;
64208;SDS011;50527;52.414;13.226;2022-12-07T05:02:00;6.00;;;2.30;;
64208;SDS011;50527;52.414;13.226;2022-12-07T05:04:25;8.70;;;2.58;;
64208;SDS011;50527;52.414;13.226;2022-12-07T05:06:51;8.82;;;2.70;;
64208;SDS011;50527;52.414;13.226;2022-12-07T05:09:16;5.60;;;2.33;;
64208;SDS011;50527;52.414;13.226;2022-12-07T05:11:42;8.50;;;2.83;;
64208;SDS011;50527;52.414;13.226;2022-12-07T05:14:10;7.22;;;2.78;;
64208;SDS011;50527;52.414;13.226;2022-12-07T05:16:44;10.60;;;2.90;;
64208;SDS011;50527;52.414;13.226;2022-12-07T05:19:12;8.60;;;2.63;;
64208;SDS011;50527;52.414;13.226;2022-12-07T05:21:38;8.52;;;3.17;;
64208;SDS011;50527;52.414;13.226;2022-12-07T05:24:04;7.43;;;2.28;;
64208;SDS011;50527;52.414;13.226;2022-12-07T05:26:31;8.07;;;2.63;;
64208;SDS011;50527;52.414;13.226;2022-12-07T05:28:57;10.25;;;3.58;;
64208;SDS011;50527;52.414;13.226;2022-12-07T05:31:23;7.20;;;2.92;;
64208;SDS011;50527;52.414;13.226;2022-12-07T05:33:50;7.88;;;3.28;;
64208;SDS011;50527;52.414;13.226;2022-12-07T05:36:16;8.63;;;3.08;;
64208;SDS011;50527;52.414;13.226;2022-12-07T05:38:41;7.40;;;2.78;;
64208;SDS011;50527;52.414;13.226;2022-12-07T05:41:07;9.95;;;3.05;;
64208;SDS011;50527;52.414;13.226;2022-12-07T05:43:53;8.18;;;3.13;;
64208;SDS011;50527;52.414;13.226;2022-12-07T05:46:18;10.18;;;2.80;;
64208;SDS011;50527;52.414;13.226;2022-12-07T05:48:44;8.65;;;3.35;;
64208;SDS011;50527;52.414;13.226;2022-12-07T05:51:09;8.93;;;3.30;;
64208;SDS011;50527;52.414;13.226;2022-12-07T05:53:35;9.45;;;3.45;;
64208;SDS011;50527;52.414;13.226;2022-12-07T05:56:00;7.70;;;2.92;;
64208;SDS011;50527;52.414;13.226;2022-12-07T05:58:26;10.20;;;3.67;;
64208;SDS011;50527;52.414;13.226;2022-12-07T06:01:10;4.13;;;1.77;;
64208;SDS011;50527;52.414;13.226;2022-12-07T06:03:35;8.13;;;2.97;;
64208;SDS011;50527;52.414;13.226;2022-12-07T06:06:00;11.98;;;3.65;;
64208;SDS011;50527;52.414;13.226;2022-12-07T06:08:26;10.63;;;3.47;;
64208;SDS011;50527;52.414;13.226;2022-12-07T06:10:51;12.05;;;3.72;;
64208;SDS011;50527;52.414;13.226;2022-12-07T06:13:37;16.65;;;4.13;;
64208;SDS011;50527;52.414;13.226;2022-12-07T06:16:02;11.60;;;3.72;;
64208;SDS011;50527;52.414;13.226;2022-12-07T06:18:28;11.20;;;3.45;;
64208;SDS011;50527;52.414;13.226;2022-12-07T06:20:53;9.13;;;3.53;;
64208;SDS011;50527;52.414;13.226;2022-12-07T06:23:19;11.65;;;3.35;;
64208;SDS011;50527;52.414;13.226;2022-12-07T06:25:47;9.80;;;3.13;;
64208;SDS011;50527;52.414;13.226;2022-12-07T06:28:12;12.10;;;3.85;;
64208;SDS011;50527;52.414;13.226;2022-12-07T06:30:38;8.75;;;2.90;;
64208;SDS011;50527;52.414;13.226;2022-12-07T06:33:03;7.30;;;3.03;;
64208;SDS011;50527;52.414;13.226;2022-12-07T06:35:29;10.60;;;3.58;;
64208;SDS011;50527;52.414;13.226;2022-12-07T06:37:54;8.57;;;3.25;;
64208;SDS011;50527;52.414;13.226;2022-12-07T06:40:20;14.23;;;3.50;;
64208;SDS011;50527;52.414;13.226;2022-12-07T06:42:45;8.55;;;2.80;;
64208;SDS011;50527;52.414;13.226;2022-12-07T06:45:11;8.80;;;3.33;;
64208;SDS011;50527;52.414;13.226;2022-12-07T06:47:36;8.77;;;3.20;;
64208;SDS011;50527;52.414;13.226;2022-12-07T06:50:01;7.05;;;3.17;;
64208;SDS011;50527;52.414;13.226;2022-12-07T06:52:27;10.32;;;3.45;;
64208;SDS011;50527;52.414;13.226;2022-12-07T06:54:53;12.52;;;4.38;;
64208;SDS011;50527;52.414;13.226;2022-12-07T06:57:18;12.77;;;3.85;;
64208;SDS011;50527;52.414;13.226;2022-12-07T06:59:45;9.98;;;3.35;;
64208;SDS011;50527;52.414;13.226;2022-12-07T07:02:10;9.10;;;3.15;;
64208;SDS011;50527;52.414;13.226;2022-12-07T07:04:36;10.20;;;3.40;;
64208;SDS011;50527;52.414;13.226;2022-12-07T07:07:01;12.77;;;4.03;;
64208;SDS011;50527;52.414;13.226;2022-12-07T07:09:27;8.45;;;3.20;;
64208;SDS011;50527;52.414;13.226;2022-12-07T07:11:52;8.35;;;2.80;;
64208;SDS011;50527;52.414;13.226;2022-12-07T07:14:17;12.02;;;3.97;;
64208;SDS011;50527;52.414;13.226;2022-12-07T07:16:44;8.52;;;3.65;;
64208;SDS011;50527;52.414;13.226;2022-12-07T07:19:09;7.95;;;2.90;;
64208;SDS011;50527;52.414;13.226;2022-12-07T07:21:36;9.88;;;3.53;;
64208;SDS011;50527;52.414;13.226;2022-12-07T07:24:02;8.52;;;3.13;;
64208;SDS011;50527;52.414;13.226;2022-12-07T07:26:27;6.78;;;3.35;;
64208;SDS011;50527;52.414;13.226;2022-12-07T07:28:53;9.05;;;3.05;;
64208;SDS011;50527;52.414;13.226;2022-12-07T07:31:18;6.97;;;2.55;;
64208;SDS011;50527;52.414;13.226;2022-12-07T07:33:45;9.48;;;3.38;;
64208;SDS011;50527;52.414;13.226;2022-12-07T07:36:11;7.82;;;2.85;;
64208;SDS011;50527;52.414;13.226;2022-12-07T07:38:37;8.70;;;3.03;;
64208;SDS011;50527;52.414;13.226;2022-12-07T07:41:02;7.63;;;3.10;;
64208;SDS011;50527;52.414;13.226;2022-12-07T07:43:28;11.85;;;3.22;;
64208;SDS011;50527;52.414;13.226;2022-12-07T07:45:53;11.52;;;3.55;;
64208;SDS011;50527;52.414;13.226;2022-12-07T07:48:19;7.68;;;3.00;;
64208;SDS011;50527;52.414;13.226;2022-12-07T07:50:44;7.95;;;3.35;;
64208;SDS011;50527;52.414;13.226;2022-12-07T07:53:10;6.35;;;2.45;;
64208;SDS011;50527;52.414;13.226;2022-12-07T07:55:35;5.55;;;2.65;;
64208;SDS011;50527;52.414;13.226;2022-12-07T07:58:01;8.07;;;2.65;;
64208;SDS011;50527;52.414;13.226;2022-12-07T08:00:26;8.32;;;2.90;;
64208;SDS011;50527;52.414;13.226;2022-12-07T08:02:51;5.75;;;2.03;;
64208;SDS011;50527;52.414;13.226;2022-12-07T08:05:17;9.00;;;2.47;;
64208;SDS011;50527;52.414;13.226;2022-12-07T08:07:43;8.10;;;2.30;;
64208;SDS011;50527;52.414;13.226;2022-12-07T08:10:09;7.32;;;2.42;;
64208;SDS011;50527;52.414;13.226;2022-12-07T08:12:39;5.53;;;2.05;;
64208;SDS011;50527;52.414;13.226;2022-12-07T08:15:27;6.40;;;2.55;;
64208;SDS011;50527;52.414;13.226;2022-12-07T08:17:54;6.20;;;1.67;;
64208;SDS011;50527;52.414;13.226;2022-12-07T08:20:20;4.07;;;1.70;;
64208;SDS011;50527;52.414;13.226;2022-12-07T08:22:45;3.05;;;1.25;;
64208;SDS011;50527;52.414;13.226;2022-12-07T08:25:11;3.72;;;1.30;;
64208;SDS011;50527;52.414;13.226;2022-12-07T08:27:36;2.75;;;1.20;;
64208;SDS011;50527;52.414;13.226;2022-12-07T08:30:02;3.20;;;1.23;;
64208;SDS011;50527;52.414;13.226;2022-12-07T08:32:28;2.25;;;1.08;;
64208;SDS011;50527;52.414;13.226;2022-12-07T08:34:53;4.03;;;1.00;;
64208;SDS011;50527;52.414;13.226;2022-12-07T08:37:19;3.25;;;1.20;;
64208;SDS011;50527;52.414;13.226;2022-12-07T08:39:44;4.43;;;1.40;;
64208;SDS011;50527;52.414;13.226;2022-12-07T08:42:10;2.80;;;1.10;;
64208;SDS011;50527;52.414;13.226;2022-12-07T08:44:35;3.85;;;0.93;;
64208;SDS011;50527;52.414;13.226;2022-12-07T08:47:02;1.95;;;0.98;;
64208;SDS011;50527;52.414;13.226;2022-12-07T08:49:34;2.42;;;0.80;;
64208;SDS011;50527;52.414;13.226;2022-12-07T08:52:03;1.92;;;0.60;;
64208;SDS011;50527;52.414;13.226;2022-12-07T08:54:30;2.35;;;0.70;;
64208;SDS011;50527;52.414;13.226;2022-12-07T08:56:58;1.42;;;0.45;;
64208;SDS011;50527;52.414;13.226;2022-12-07T08:59:24;1.83;;;0.40;;
64208;SDS011;50527;52.414;13.226;2022-12-07T09:01:49;1.02;;;0.38;;
64208;SDS011;50527;52.414;13.226;2022-12-07T09:04:15;0.73;;;0.40;;
64208;SDS011;50527;52.414;13.226;2022-12-07T09:06:42;0.57;;;0.20;;
64208;SDS011;50527;52.414;13.226;2022-12-07T09:09:07;1.33;;;0.52;;
64208;SDS011;50527;52.414;13.226;2022-12-07T09:11:34;2.42;;;0.50;;
64208;SDS011;50527;52.414;13.226;2022-12-07T09:13:59;0.93;;;0.30;;
64208;SDS011;50527;52.414;13.226;2022-12-07T09:16:25;0.98;;;0.40;;
64208;SDS011;50527;52.414;13.226;2022-12-07T09:18:50;1.30;;;0.40;;
64208;SDS011;50527;52.414;13.226;2022-12-07T09:21:16;1.98;;;0.60;;
64208;SDS011;50527;52.414;13.226;2022-12-07T09:23:41;0.52;;;0.30;;
64208;SDS011;50527;52.414;13.226;2022-12-07T09:26:07;2.05;;;0.43;;
64208;SDS011;50527;52.414;13.226;2022-12-07T09:28:33;0.57;;;0.30;;
64208;SDS011;50527;52.414;13.226;2022-12-07T09:30:58;1.02;;;0.30;;
64208;SDS011;50527;52.414;13.226;2022-12-07T09:33:24;0.88;;;0.50;;
64208;SDS011;50527;52.414;13.226;2022-12-07T09:35:50;1.70;;;0.50;;
64208;SDS011;50527;52.414;13.226;2022-12-07T09:38:17;1.02;;;0.45;;
64208;SDS011;50527;52.414;13.226;2022-12-07T09:40:44;1.95;;;0.60;;
64208;SDS011;50527;52.414;13.226;2022-12-07T09:43:14;1.08;;;0.30;;
64208;SDS011;50527;52.414;13.226;2022-12-07T09:45:47;1.58;;;0.60;;
64208;SDS011;50527;52.414;13.226;2022-12-07T09:48:16;2.50;;;0.40;;
64208;SDS011;50527;52.414;13.226;2022-12-07T09:50:44;0.65;;;0.28;;
64208;SDS011;50527;52.414;13.226;2022-12-07T09:53:24;0.20;;;0.15;;
64208;SDS011;50527;52.414;13.226;2022-12-07T09:55:53;0.57;;;0.20;;
64208;SDS011;50527;52.414;13.226;2022-12-07T09:58:20;0.88;;;0.40;;
64208;SDS011;50527;52.414;13.226;2022-12-07T10:00:50;1.20;;;0.30;;
64208;SDS011;50527;52.414;13.226;2022-12-07T10:03:18;0.40;;;0.30;;
64208;SDS011;50527;52.414;13.226;2022-12-07T10:05:45;0.85;;;0.30;;
64208;SDS011;50527;52.414;13.226;2022-12-07T10:08:13;0.43;;;0.20;;
64208;SDS011;50527;52.414;13.226;2022-12-07T10:10:42;0.95;;;0.30;;
64208;SDS011;50527;52.414;13.226;2022-12-07T10:15:46;1.83;;;0.40;;
64208;SDS011;50527;52.414;13.226;2022-12-07T10:18:26;1.02;;;0.43;;
64208;SDS011;50527;52.414;13.226;2022-12-07T10:26:29;0.90;;;0.40;;
64208;SDS011;50527;52.414;13.226;2022-12-07T10:29:01;0.77;;;0.40;;
64208;SDS011;50527;52.414;13.226;2022-12-07T10:31:44;4.10;;;0.55;;
64208;SDS011;50527;52.414;13.226;2022-12-07T10:34:20;1.08;;;0.60;;
64208;SDS011;50527;52.414;13.226;2022-12-07T10:36:49;3.25;;;0.80;;
64208;SDS011;50527;52.414;13.226;2022-12-07T10:39:17;1.10;;;0.70;;
64208;SDS011;50527;52.414;13.226;2022-12-07T10:41:55;1.05;;;0.55;;
64208;SDS011;50527;52.414;13.226;2022-12-07T10:44:23;3.20;;;0.68;;
64208;SDS011;50527;52.414;13.226;2022-12-07T10:50:10;2.00;;;0.70;;
64208;SDS011;50527;52.414;13.226;2022-12-07T11:04:27;4.03;;;0.35;;
64208;SDS011;50527;52.414;13.226;2022-12-07T11:07:06;2.83;;;0.50;;
64208;SDS011;50527;52.414;13.226;2022-12-07T11:10:02;1.90;;;0.60;;
64208;SDS011;50527;52.414;13.226;2022-12-07T11:15:43;0.90;;;0.40;;
64208;SDS011;50527;52.414;13.226;2022-12-07T11:18:18;1.65;;;0.57;;
64208;SDS011;50527;52.414;13.226;2022-12-07T11:29:26;1.73;;;0.40;;
64208;SDS011;50527;52.414;13.226;2022-12-07T11:37:31;1.73;;;0.40;;
64208;SDS011;50527;52.414;13.226;2022-12-07T11:40:00;2.85;;;0.60;;
64208;SDS011;50527;52.414;13.226;2022-12-07T11:42:30;2.28;;;0.40;;
64208;SDS011;50527;52.414;13.226;2022-12-07T11:45:10;1.70;;;0.47;;
64208;SDS011;50527;52.414;13.226;2022-12-07T11:47:48;2.20;;;0.50;;
64208;SDS011;50527;52.414;13.226;2022-12-07T11:55:57;1.13;;;0.45;;
64208;SDS011;50527;52.414;13.226;2022-12-07T12:03:40;2.92;;;0.60;;
64208;SDS011;50527;52.414;13.226;2022-12-07T12:17:20;4.30;;;0.65;;
64208;SDS011;50527;52.414;13.226;2022-12-07T12:20:14;1.42;;;0.43;;
64208;SDS011;50527;52.414;13.226;2022-12-07T12:22:55;1.13;;;0.47;;
64208;SDS011;50527;52.414;13.226;2022-12-07T12:25:27;3.58;;;0.70;;
64208;SDS011;50527;52.414;13.226;2022-12-07T12:27:57;1.25;;;0.40;;
64208;SDS011;50527;52.414;13.226;2022-12-07T12:33:01;2.13;;;0.60;;
64208;SDS011;50527;52.414;13.226;2022-12-07T12:35:32;2.72;;;0.57;;
64208;SDS011;50527;52.414;13.226;2022-12-07T12:38:20;1.65;;;0.40;;
64208;SDS011;50527;52.414;13.226;2022-12-07T12:40:56;3.90;;;0.70;;
64208;SDS011;50527;52.414;13.226;2022-12-07T12:48:55;1.30;;;0.30;;
64208;SDS011;50527;52.414;13.226;2022-12-07T12:51:40;0.77;;;0.40;;
64208;SDS011;50527;52.414;13.226;2022-12-07T12:54:20;0.68;;;0.22;;
64208;SDS011;50527;52.414;13.226;2022-12-07T13:02:24;3.92;;;0.52;;
64208;SDS011;50527;52.414;13.226;2022-12-07T13:10:20;0.65;;;0.30;;
64208;SDS011;50527;52.414;13.226;2022-12-07T13:18:22;3.00;;;0.43;;
64208;SDS011;50527;52.414;13.226;2022-12-07T13:28:49;4.68;;;0.65;;
64208;SDS011;50527;52.414;13.226;2022-12-07T13:31:31;3.35;;;0.40;;
64208;SDS011;50527;52.414;13.226;2022-12-07T13:34:29;3.13;;;0.63;;
64208;SDS011;50527;52.414;13.226;2022-12-07T13:36:57;2.00;;;0.47;;
64208;SDS011;50527;52.414;13.226;2022-12-07T13:39:24;3.83;;;0.55;;
64208;SDS011;50527;52.414;13.226;2022-12-07T13:41:53;2.88;;;0.57;;
64208;SDS011;50527;52.414;13.226;2022-12-07T13:44:20;5.40;;;0.70;;
64208;SDS011;50527;52.414;13.226;2022-12-07T13:49:49;0.88;;;0.20;;
64208;SDS011;50527;52.414;13.226;2022-12-07T13:52:23;4.05;;;0.55;;
64208;SDS011;50527;52.414;13.226;2022-12-07T13:54:57;4.18;;;0.40;;
64208;SDS011;50527;52.414;13.226;2022-12-07T13:57:26;1.25;;;0.30;;
64208;SDS011;50527;52.414;13.226;2022-12-07T13:59:55;1.88;;;0.20;;
64208;SDS011;50527;52.414;13.226;2022-12-07T14:02:26;4.50;;;0.70;;
64208;SDS011;50527;52.414;13.226;2022-12-07T14:05:06;1.08;;;0.45;;
64208;SDS011;50527;52.414;13.226;2022-12-07T14:07:35;0.75;;;0.30;;
64208;SDS011;50527;52.414;13.226;2022-12-07T14:10:03;4.80;;;0.70;;
64208;SDS011;50527;52.414;13.226;2022-12-07T14:12:30;1.17;;;0.50;;
64208;SDS011;50527;52.414;13.226;2022-12-07T14:14:57;1.38;;;0.40;;
64208;SDS011;50527;52.414;13.226;2022-12-07T14:17:24;1.45;;;0.30;;
64208;SDS011;50527;52.414;13.226;2022-12-07T14:19:55;4.50;;;0.57;;
64208;SDS011;50527;52.414;13.226;2022-12-07T14:22:26;4.60;;;0.52;;
64208;SDS011;50527;52.414;13.226;2022-12-07T14:27:52;0.93;;;0.40;;
64208;SDS011;50527;52.414;13.226;2022-12-07T14:30:23;1.17;;;0.30;;
64208;SDS011;50527;52.414;13.226;2022-12-07T14:32:53;5.13;;;1.00;;
64208;SDS011;50527;52.414;13.226;2022-12-07T14:35:24;7.45;;;1.70;;
64208;SDS011;50527;52.414;13.226;2022-12-07T14:37:50;5.60;;;0.80;;
64208;SDS011;50527;52.414;13.226;2022-12-07T14:40:20;12.15;;;3.75;;
64208;SDS011;50527;52.414;13.226;2022-12-07T14:42:48;5.05;;;1.65;;
64208;SDS011;50527;52.414;13.226;2022-12-07T14:45:19;15.57;;;2.15;;
64208;SDS011;50527;52.414;13.226;2022-12-07T14:47:46;5.25;;;1.38;;
64208;SDS011;50527;52.414;13.226;2022-12-07T14:50:13;7.63;;;2.10;;
64208;SDS011;50527;52.414;13.226;2022-12-07T14:52:41;7.35;;;1.65;;
64208;SDS011;50527;52.414;13.226;2022-12-07T14:55:18;4.55;;;1.30;;
64208;SDS011;50527;52.414;13.226;2022-12-07T14:57:48;7.75;;;1.33;;
64208;SDS011;50527;52.414;13.226;2022-12-07T15:00:15;4.07;;;0.90;;
64208;SDS011;50527;52.414;13.226;2022-12-07T15:02:41;4.53;;;0.77;;
64208;SDS011;50527;52.414;13.226;2022-12-07T15:05:07;1.05;;;0.70;;
64208;SDS011;50527;52.414;13.226;2022-12-07T15:07:33;3.00;;;1.00;;
64208;SDS011;50527;52.414;13.226;2022-12-07T15:09:58;4.40;;;0.88;;
64208;SDS011;50527;52.414;13.226;2022-12-07T15:12:24;2.60;;;1.17;;
64208;SDS011;50527;52.414;13.226;2022-12-07T15:14:49;1.65;;;0.40;;
64208;SDS011;50527;52.414;13.226;2022-12-07T15:17:15;4.10;;;1.42;;
64208;SDS011;50527;52.414;13.226;2022-12-07T15:19:40;1.67;;;0.45;;
64208;SDS011;50527;52.414;13.226;2022-12-07T15:22:07;4.03;;;0.70;;
64208;SDS011;50527;52.414;13.226;2022-12-07T15:24:33;4.53;;;0.55;;
64208;SDS011;50527;52.414;13.226;2022-12-07T15:26:58;3.60;;;0.60;;
64208;SDS011;50527;52.414;13.226;2022-12-07T15:29:24;2.33;;;0.70;;
64208;SDS011;50527;52.414;13.226;2022-12-07T15:31:52;1.85;;;0.63;;
64208;SDS011;50527;52.414;13.226;2022-12-07T15:34:18;2.30;;;0.45;;
64208;SDS011;50527;52.414;13.226;2022-12-07T15:36:43;6.53;;;0.88;;
64208;SDS011;50527;52.414;13.226;2022-12-07T15:39:09;2.33;;;1.00;;
64208;SDS011;50527;52.414;13.226;2022-12-07T15:41:35;3.15;;;0.70;;
64208;SDS011;50527;52.414;13.226;2022-12-07T15:44:01;3.00;;;0.45;;
64208;SDS011;50527;52.414;13.226;2022-12-07T15:46:45;2.13;;;0.57;;
64208;SDS011;50527;52.414;13.226;2022-12-07T15:49:14;3.92;;;1.00;;
64208;SDS011;50527;52.414;13.226;2022-12-07T15:51:42;3.78;;;0.55;;
64208;SDS011;50527;52.414;13.226;2022-12-07T15:54:11;8.23;;;0.98;;
64208;SDS011;50527;52.414;13.226;2022-12-07T15:56:42;4.43;;;0.70;;
64208;SDS011;50527;52.414;13.226;2022-12-07T15:59:08;5.13;;;0.45;;
64208;SDS011;50527;52.414;13.226;2022-12-07T16:01:33;2.22;;;0.43;;
64208;SDS011;50527;52.414;13.226;2022-12-07T16:03:58;1.23;;;0.32;;
64208;SDS011;50527;52.414;13.226;2022-12-07T16:06:24;2.38;;;0.55;;
64208;SDS011;50527;52.414;13.226;2022-12-07T16:08:50;2.22;;;0.70;;
64208;SDS011;50527;52.414;13.226;2022-12-07T16:11:15;2.10;;;0.60;;
64208;SDS011;50527;52.414;13.226;2022-12-07T16:13:41;5.22;;;0.93;;
64208;SDS011;50527;52.414;13.226;2022-12-07T16:16:07;2.70;;;0.70;;
64208;SDS011;50527;52.414;13.226;2022-12-07T16:18:36;3.75;;;0.90;;
64208;SDS011;50527;52.414;13.226;2022-12-07T16:21:02;0.88;;;0.30;;
64208;SDS011;50527;52.414;13.226;2022-12-07T16:23:27;0.85;;;0.50;;
64208;SDS011;50527;52.414;13.226;2022-12-07T16:25:53;4.55;;;0.75;;
64208;SDS011;50527;52.414;13.226;2022-12-07T16:28:19;3.30;;;0.80;;
64208;SDS011;50527;52.414;13.226;2022-12-07T16:30:44;3.67;;;0.65;;
64208;SDS011;50527;52.414;13.226;2022-12-07T16:33:10;3.58;;;0.88;;
64208;SDS011;50527;52.414;13.226;2022-12-07T16:35:38;3.53;;;0.70;;
64208;SDS011;50527;52.414;13.226;2022-12-07T16:38:05;7.68;;;0.80;;
64208;SDS011;50527;52.414;13.226;2022-12-07T16:40:31;2.28;;;0.70;;
64208;SDS011;50527;52.414;13.226;2022-12-07T16:42:57;2.35;;;0.80;;
64208;SDS011;50527;52.414;13.226;2022-12-07T17:16:31;25.30;;;23.10;;
64208;SDS011;50527;52.414;13.226;2022-12-07T17:18:57;8.77;;;8.27;;